createdAt,value
2017-11-06T00:01:11.333Z,8.14
2017-11-06T00:03:39.654Z,8.11
2017-11-06T00:06:08.694Z,8.09
2017-11-06T00:08:36.977Z,8.07
2017-11-06T00:11:05.254Z,8.06
2017-11-06T00:13:33.566Z,8.04
2017-11-06T00:16:01.906Z,8.03
2017-11-06T00:18:30.190Z,8.02
2017-11-06T00:20:58.496Z,8.05
2017-11-06T00:23:26.805Z,8.09
2017-11-06T00:25:55.086Z,8.15
2017-11-06T00:28:23.394Z,8.19
2017-11-06T00:30:51.693Z,8.27
2017-11-06T00:33:19.999Z,8.33
2017-11-06T00:35:48.284Z,8.38
2017-11-06T00:38:16.632Z,8.40
2017-11-06T00:40:44.922Z,8.40
2017-11-06T00:43:13.263Z,8.38
2017-11-06T00:45:42.325Z,8.35
2017-11-06T00:48:10.620Z,8.34
2017-11-06T00:50:38.903Z,8.33
2017-11-06T00:53:07.188Z,8.32
2017-11-06T00:55:35.556Z,8.30
2017-11-06T00:58:03.838Z,8.29
2017-11-06T01:00:32.981Z,8.23
2017-11-06T01:03:02.053Z,8.19
2017-11-06T01:05:30.339Z,8.15
2017-11-06T01:07:59.410Z,8.10
2017-11-06T01:10:27.697Z,8.06
2017-11-06T01:12:56.042Z,8.04
2017-11-06T01:15:24.360Z,8.06
2017-11-06T01:17:52.656Z,8.10
2017-11-06T01:20:20.944Z,8.11
2017-11-06T01:22:49.231Z,8.09
2017-11-06T01:25:18.304Z,8.06
2017-11-06T01:27:46.623Z,8.04
2017-11-06T01:30:15.818Z,8.00
2017-11-06T01:32:44.174Z,7.96
2017-11-06T01:35:12.533Z,7.93
2017-11-06T01:37:40.822Z,7.91
2017-11-06T01:40:09.207Z,7.88
2017-11-06T01:42:37.530Z,7.84
2017-11-06T01:45:05.838Z,7.82
2017-11-06T01:47:34.134Z,7.79
2017-11-06T01:50:02.430Z,7.77
2017-11-06T01:52:30.812Z,7.76
2017-11-06T01:54:59.124Z,7.75
2017-11-06T01:57:28.943Z,7.76
2017-11-06T01:59:58.755Z,7.80
2017-11-06T02:02:27.492Z,7.80
2017-11-06T02:04:55.794Z,7.83
2017-11-06T02:07:24.107Z,7.83
2017-11-06T02:09:52.400Z,7.82
2017-11-06T02:12:20.680Z,7.79
2017-11-06T02:14:48.994Z,7.78
2017-11-06T02:17:17.285Z,7.77
2017-11-06T02:19:45.575Z,7.76
2017-11-06T02:22:13.859Z,7.73
2017-11-06T02:24:42.150Z,7.75
2017-11-06T02:27:10.450Z,7.76
2017-11-06T02:29:38.735Z,7.75
2017-11-06T02:32:07.020Z,7.74
2017-11-06T02:34:36.828Z,7.72
2017-11-06T02:37:05.205Z,7.75
2017-11-06T02:39:33.499Z,7.77
2017-11-06T02:42:03.302Z,7.79
2017-11-06T02:44:31.611Z,7.85
2017-11-06T02:46:59.916Z,7.91
2017-11-06T02:49:28.207Z,7.96
2017-11-06T02:51:56.493Z,7.97
2017-11-06T02:54:24.780Z,7.95
2017-11-06T02:56:53.084Z,7.92
2017-11-06T02:59:21.470Z,7.91
2017-11-06T03:01:49.764Z,7.92
2017-11-06T03:04:18.160Z,7.89
2017-11-06T03:06:46.452Z,7.88
2017-11-06T03:09:15.516Z,7.93
2017-11-06T03:11:43.803Z,7.96
2017-11-06T03:14:12.094Z,8.00
2017-11-06T03:16:41.196Z,8.02
2017-11-06T03:19:09.482Z,8.01
2017-11-06T03:21:37.846Z,8.00
2017-11-06T03:24:06.136Z,8.00
2017-11-06T03:26:34.424Z,7.98
2017-11-06T03:29:04.235Z,7.95
2017-11-06T03:31:32.512Z,7.93
2017-11-06T03:34:00.794Z,7.93
2017-11-06T03:36:29.849Z,7.95
2017-11-06T03:38:58.226Z,7.94
2017-11-06T03:41:26.509Z,7.91
2017-11-06T03:43:54.827Z,7.90
2017-11-06T03:46:23.149Z,7.94
2017-11-06T03:48:52.204Z,7.99
2017-11-06T03:51:20.550Z,8.04
2017-11-06T03:53:48.832Z,8.03
2017-11-06T03:56:17.119Z,8.01
2017-11-06T03:58:45.409Z,8.00
2017-11-06T04:01:13.701Z,7.97
2017-11-06T04:03:42.051Z,7.95
2017-11-06T04:06:10.347Z,7.92
2017-11-06T04:08:38.751Z,7.91
2017-11-06T04:11:07.143Z,7.91
2017-11-06T04:13:35.427Z,7.91
2017-11-06T04:16:03.752Z,7.87
2017-11-06T04:18:32.792Z,7.86
2017-11-06T04:21:01.095Z,7.83
2017-11-06T04:23:29.380Z,7.81
2017-11-06T04:25:57.689Z,7.80
2017-11-06T04:28:26.733Z,7.83
2017-11-06T04:30:55.033Z,7.83
2017-11-06T04:33:23.323Z,7.82
2017-11-06T04:35:51.668Z,7.84
2017-11-06T04:38:19.976Z,7.86
2017-11-06T04:40:48.274Z,7.92
2017-11-06T04:43:16.547Z,7.96
2017-11-06T04:45:46.440Z,8.02
2017-11-06T04:48:14.749Z,8.04
2017-11-06T04:50:43.808Z,8.05
2017-11-06T04:53:12.111Z,8.05
2017-11-06T04:55:40.490Z,8.00
2017-11-06T04:58:08.844Z,7.98
2017-11-06T05:00:37.148Z,7.99
2017-11-06T05:03:05.438Z,7.97
2017-11-06T05:05:33.811Z,7.96
2017-11-06T05:08:02.147Z,7.96
2017-11-06T05:10:31.293Z,7.95
2017-11-06T05:12:59.583Z,7.94
2017-11-06T05:15:27.864Z,7.92
2017-11-06T05:17:56.165Z,7.89
2017-11-06T05:20:24.485Z,7.87
2017-11-06T05:22:52.782Z,7.86
2017-11-06T05:25:21.074Z,7.87
2017-11-06T05:27:49.352Z,7.85
2017-11-06T05:30:17.646Z,7.83
2017-11-06T05:32:45.956Z,7.81
2017-11-06T05:35:15.755Z,7.80
2017-11-06T05:37:44.056Z,7.78
2017-11-06T05:40:13.880Z,7.75
2017-11-06T05:42:42.212Z,7.73
2017-11-06T05:45:10.646Z,7.69
2017-11-06T05:47:38.942Z,7.68
2017-11-06T05:50:08.061Z,7.66
2017-11-06T05:52:36.528Z,7.64
2017-11-06T05:55:05.563Z,7.64
2017-11-06T05:57:33.880Z,7.67
2017-11-06T06:00:03.747Z,7.68
2017-11-06T06:02:32.050Z,7.70
2017-11-06T06:05:00.362Z,7.74
2017-11-06T06:07:30.180Z,7.77
2017-11-06T06:10:00.008Z,7.78
2017-11-06T06:12:29.071Z,7.81
2017-11-06T06:14:57.368Z,7.82
2017-11-06T06:17:27.422Z,7.84
2017-11-06T06:19:56.464Z,7.85
2017-11-06T06:22:24.752Z,7.88
2017-11-06T06:24:53.058Z,7.94
2017-11-06T06:27:22.140Z,7.98
2017-11-06T06:29:50.486Z,8.02
2017-11-06T06:32:18.777Z,8.04
2017-11-06T06:34:47.158Z,8.10
2017-11-06T06:37:15.450Z,8.13
2017-11-06T06:39:43.732Z,8.14
2017-11-06T06:42:12.046Z,8.14
2017-11-06T06:44:40.382Z,8.18
2017-11-06T06:47:08.669Z,8.20
2017-11-06T06:49:36.978Z,8.21
2017-11-06T06:52:05.416Z,8.22
2017-11-06T06:54:33.705Z,8.21
2017-11-06T06:57:02.010Z,8.20
2017-11-06T06:59:30.322Z,8.21
2017-11-06T07:01:58.602Z,8.25
2017-11-06T07:04:26.918Z,8.29
2017-11-06T07:06:55.200Z,8.34
2017-11-06T07:09:23.501Z,8.38
2017-11-06T07:11:51.872Z,8.40
2017-11-06T07:14:20.196Z,8.41
2017-11-06T07:16:48.489Z,8.45
2017-11-06T07:19:16.785Z,8.50
2017-11-06T07:21:45.850Z,8.54
2017-11-06T07:24:14.317Z,8.63
2017-11-06T07:26:42.638Z,8.71
2017-11-06T07:29:11.700Z,8.76
2017-11-06T07:31:40.005Z,8.81
2017-11-06T07:34:08.309Z,8.89
2017-11-06T07:36:37.400Z,8.97
2017-11-06T07:39:05.710Z,9.00
2017-11-06T07:41:34.015Z,9.03
2017-11-06T07:44:02.327Z,9.07
2017-11-06T07:46:30.612Z,9.11
2017-11-06T07:48:59.684Z,9.17
2017-11-06T07:51:27.993Z,9.26
2017-11-06T07:53:57.867Z,9.31
2017-11-06T07:56:26.164Z,9.36
2017-11-06T07:58:54.474Z,9.41
2017-11-06T08:01:22.800Z,9.44
2017-11-06T08:03:51.124Z,9.46
2017-11-06T08:06:19.584Z,9.52
2017-11-06T08:08:47.868Z,9.55
2017-11-06T08:11:16.178Z,9.58
2017-11-06T08:13:44.466Z,9.61
2017-11-06T08:16:12.759Z,9.64
2017-11-06T08:18:41.135Z,9.69
2017-11-06T08:21:09.416Z,9.73
2017-11-06T08:23:39.240Z,9.76
2017-11-06T08:26:07.532Z,9.79
2017-11-06T08:28:36.600Z,9.82
2017-11-06T08:31:04.911Z,9.86
2017-11-06T08:33:33.974Z,9.92
2017-11-06T08:36:02.374Z,9.95
2017-11-06T08:38:31.523Z,10.00
2017-11-06T08:40:59.811Z,10.02
2017-11-06T08:43:28.112Z,10.05
2017-11-06T08:45:56.449Z,10.10
2017-11-06T08:48:24.743Z,10.14
2017-11-06T08:50:53.058Z,10.17
2017-11-06T08:53:21.386Z,10.23
2017-11-06T08:55:50.433Z,10.27
2017-11-06T08:58:18.737Z,10.32
2017-11-06T09:00:47.818Z,10.38
2017-11-06T09:03:16.149Z,10.42
2017-11-06T09:05:45.201Z,10.48
2017-11-06T09:08:13.550Z,10.54
2017-11-06T09:10:41.844Z,10.59
2017-11-06T09:13:10.234Z,10.65
2017-11-06T09:15:38.520Z,10.69
2017-11-06T09:18:06.807Z,10.75
2017-11-06T09:20:35.136Z,10.82
2017-11-06T09:23:04.200Z,10.91
2017-11-06T09:25:32.510Z,11.05
2017-11-06T09:28:01.589Z,11.17
2017-11-06T09:30:31.413Z,11.30
2017-11-06T09:33:00.556Z,11.43
2017-11-06T09:35:28.858Z,11.56
2017-11-06T09:37:57.196Z,11.76
2017-11-06T09:40:26.274Z,11.96
2017-11-06T09:42:54.567Z,12.10
2017-11-06T09:45:22.878Z,12.16
2017-11-06T09:47:51.171Z,12.16
2017-11-06T09:50:19.482Z,12.11
2017-11-06T09:52:47.806Z,12.05
2017-11-06T09:55:16.869Z,12.03
2017-11-06T09:57:45.185Z,12.00
2017-11-06T10:00:14.246Z,11.93
2017-11-06T10:02:42.541Z,11.88
2017-11-06T10:05:10.857Z,11.84
2017-11-06T10:07:39.173Z,11.87
2017-11-06T10:10:07.479Z,11.86
2017-11-06T10:12:35.788Z,11.85
2017-11-06T10:15:04.866Z,11.92
2017-11-06T10:17:33.200Z,11.92
2017-11-06T10:20:01.535Z,11.95
2017-11-06T10:22:30.704Z,11.99
2017-11-06T10:24:59.005Z,12.03
2017-11-06T10:27:27.368Z,12.08
2017-11-06T10:29:55.680Z,12.15
2017-11-06T10:32:24.032Z,12.25
2017-11-06T10:34:52.349Z,12.37
2017-11-06T10:37:21.425Z,12.38
2017-11-06T10:39:49.750Z,12.34
2017-11-06T10:42:18.806Z,12.28
2017-11-06T10:44:47.119Z,12.27
2017-11-06T10:47:16.217Z,12.26
2017-11-06T10:49:45.275Z,12.19
2017-11-06T10:52:13.589Z,12.09
2017-11-06T10:54:41.949Z,12.02
2017-11-06T10:57:10.254Z,12.02
2017-11-06T10:59:39.319Z,12.09
2017-11-06T11:02:08.104Z,12.13
2017-11-06T11:04:36.440Z,12.23
2017-11-06T11:07:05.672Z,12.32
2017-11-06T11:09:33.985Z,12.33
2017-11-06T11:12:02.328Z,12.34
2017-11-06T11:14:30.630Z,12.41
2017-11-06T11:16:58.952Z,12.51
2017-11-06T11:19:27.240Z,12.58
2017-11-06T11:21:56.347Z,12.62
2017-11-06T11:24:25.412Z,12.73
2017-11-06T11:26:53.733Z,12.82
2017-11-06T11:29:22.787Z,12.92
2017-11-06T11:31:51.093Z,13.04
2017-11-06T11:34:19.388Z,13.12
2017-11-06T11:36:48.481Z,13.14
2017-11-06T11:39:17.545Z,13.21
2017-11-06T11:41:45.975Z,13.27
2017-11-06T11:44:15.043Z,13.30
2017-11-06T11:46:43.337Z,13.30
2017-11-06T11:49:11.650Z,13.28
2017-11-06T11:51:40.534Z,13.31
2017-11-06T11:54:09.601Z,13.34
2017-11-06T11:56:37.909Z,13.37
2017-11-06T11:59:06.971Z,13.47
2017-11-06T12:01:35.264Z,13.62
2017-11-06T12:04:04.341Z,13.75
2017-11-06T12:06:32.647Z,13.87
2017-11-06T12:09:00.944Z,13.95
2017-11-06T12:11:30.089Z,13.91
2017-11-06T12:13:58.379Z,13.86
2017-11-06T12:16:26.681Z,13.95
2017-11-06T12:18:54.975Z,14.05
2017-11-06T12:21:23.295Z,14.06
2017-11-06T12:23:51.600Z,13.98
2017-11-06T12:26:19.910Z,13.86
2017-11-06T12:28:48.203Z,13.66
2017-11-06T12:31:16.522Z,13.57
2017-11-06T12:33:44.823Z,13.44
2017-11-06T12:36:13.184Z,13.29
2017-11-06T12:38:42.245Z,13.19
2017-11-06T12:41:10.564Z,13.07
2017-11-06T12:43:38.873Z,12.98
2017-11-06T12:46:07.168Z,12.91
2017-11-06T12:48:35.467Z,12.85
2017-11-06T12:51:03.769Z,12.81
2017-11-06T12:53:32.869Z,12.78
2017-11-06T12:56:01.949Z,12.80
2017-11-06T12:58:30.243Z,12.85
2017-11-06T13:00:59.372Z,12.93
2017-11-06T13:03:27.667Z,12.96
2017-11-06T13:05:56.811Z,13.05
2017-11-06T13:08:25.175Z,13.14
2017-11-06T13:10:53.501Z,13.22
2017-11-06T13:13:21.803Z,13.28
2017-11-06T13:15:50.229Z,13.32
2017-11-06T13:18:18.524Z,13.35
2017-11-06T13:20:46.835Z,13.37
2017-11-06T13:23:15.163Z,13.41
2017-11-06T13:25:43.496Z,13.43
2017-11-06T13:28:11.805Z,13.47
2017-11-06T13:30:40.735Z,13.53
2017-11-06T13:33:09.035Z,13.57
2017-11-06T13:35:38.121Z,13.64
2017-11-06T13:38:06.439Z,13.76
2017-11-06T13:40:34.799Z,13.86
2017-11-06T13:43:03.916Z,13.89
2017-11-06T13:45:32.235Z,13.91
2017-11-06T13:48:00.543Z,13.95
2017-11-06T13:50:28.837Z,14.00
2017-11-06T13:52:57.131Z,14.02
2017-11-06T13:55:26.207Z,14.00
2017-11-06T13:57:54.501Z,13.99
2017-11-06T14:00:22.848Z,13.83
2017-11-06T14:02:51.198Z,13.76
2017-11-06T14:05:19.503Z,13.73
2017-11-06T14:07:47.822Z,13.64
2017-11-06T14:10:16.184Z,13.62
2017-11-06T14:12:44.495Z,13.62
2017-11-06T14:15:13.557Z,13.63
2017-11-06T14:17:41.988Z,13.66
2017-11-06T14:20:10.320Z,13.74
2017-11-06T14:22:38.706Z,13.76
2017-11-06T14:25:07.083Z,13.74
2017-11-06T14:27:35.381Z,13.56
2017-11-06T14:30:03.693Z,13.48
2017-11-06T14:32:32.818Z,13.42
2017-11-06T14:35:01.119Z,13.44
2017-11-06T14:37:29.435Z,13.44
2017-11-06T14:39:58.522Z,13.41
2017-11-06T14:42:26.819Z,13.38
2017-11-06T14:44:55.125Z,13.36
2017-11-06T14:47:23.420Z,13.33
2017-11-06T14:49:51.802Z,13.28
2017-11-06T14:52:20.120Z,13.25
2017-11-06T14:54:48.438Z,13.21
2017-11-06T14:57:16.748Z,13.16
2017-11-06T14:59:45.056Z,13.05
2017-11-06T15:02:13.402Z,12.93
2017-11-06T15:04:42.547Z,12.84
2017-11-06T15:07:10.878Z,12.78
2017-11-06T15:09:40.539Z,12.73
2017-11-06T15:12:08.836Z,12.63
2017-11-06T15:14:37.190Z,12.58
2017-11-06T15:17:05.589Z,12.50
2017-11-06T15:19:33.886Z,12.45
2017-11-06T15:22:02.273Z,12.39
2017-11-06T15:24:30.591Z,12.33
2017-11-06T15:26:59.661Z,12.27
2017-11-06T15:29:27.984Z,12.26
2017-11-06T15:31:56.369Z,12.27
2017-11-06T15:34:24.790Z,12.26
2017-11-06T15:36:53.103Z,12.20
2017-11-06T15:39:22.162Z,12.08
2017-11-06T15:41:50.468Z,11.99
2017-11-06T15:44:19.542Z,11.99
2017-11-06T15:46:47.860Z,11.95
2017-11-06T15:49:16.165Z,11.88
2017-11-06T15:51:44.478Z,11.82
2017-11-06T15:54:12.869Z,11.72
2017-11-06T15:56:41.201Z,11.68
2017-11-06T15:59:10.346Z,11.61
2017-11-06T16:01:38.669Z,11.57
2017-11-06T16:04:07.020Z,11.52
2017-11-06T16:06:35.369Z,11.45
2017-11-06T16:09:03.857Z,11.37
2017-11-06T16:11:32.148Z,11.33
2017-11-06T16:14:00.461Z,11.26
2017-11-06T16:16:28.762Z,11.21
2017-11-06T16:18:57.122Z,11.16
2017-11-06T16:21:25.432Z,11.06
2017-11-06T16:23:54.562Z,10.96
2017-11-06T16:26:22.854Z,10.86
2017-11-06T16:28:51.156Z,10.80
2017-11-06T16:31:19.472Z,10.72
2017-11-06T16:33:47.808Z,10.64
2017-11-06T16:36:16.101Z,10.54
2017-11-06T16:38:44.396Z,10.50
2017-11-06T16:41:12.692Z,10.48
2017-11-06T16:43:41.001Z,10.49
2017-11-06T16:46:09.312Z,10.47
2017-11-06T16:48:37.681Z,10.41
2017-11-06T16:51:05.976Z,10.35
2017-11-06T16:53:34.277Z,10.30
2017-11-06T16:56:02.572Z,10.22
2017-11-06T16:58:30.866Z,10.14
2017-11-06T17:00:59.169Z,10.11
2017-11-06T17:03:27.462Z,10.08
2017-11-06T17:05:55.776Z,10.08
2017-11-06T17:08:24.108Z,10.03
2017-11-06T17:10:53.256Z,10.00
2017-11-06T17:13:21.570Z,9.96
2017-11-06T17:15:49.862Z,9.94
2017-11-06T17:18:18.946Z,9.92
2017-11-06T17:20:48.887Z,9.87
2017-11-06T17:23:17.938Z,9.85
2017-11-06T17:25:46.260Z,9.83
2017-11-06T17:28:15.317Z,9.80
2017-11-06T17:30:43.632Z,9.76
2017-11-06T17:33:11.953Z,9.71
2017-11-06T17:35:40.246Z,9.66
2017-11-06T17:38:08.540Z,9.60
2017-11-06T17:40:36.856Z,9.55
2017-11-06T17:43:05.145Z,9.50
2017-11-06T17:45:34.204Z,9.46
2017-11-06T17:48:02.500Z,9.43
2017-11-06T17:50:32.303Z,9.38
2017-11-06T17:53:00.606Z,9.35
2017-11-06T17:55:28.892Z,9.35
2017-11-06T17:57:58.125Z,9.34
2017-11-06T18:00:26.423Z,9.31
2017-11-06T18:02:59.480Z,9.31
2017-11-06T18:05:28.546Z,9.27
2017-11-06T18:07:56.841Z,9.25
2017-11-06T18:10:25.131Z,9.22
2017-11-06T18:12:54.201Z,9.16
2017-11-06T18:15:22.526Z,9.09
2017-11-06T18:17:51.608Z,9.07
2017-11-06T18:20:19.944Z,9.04
2017-11-06T18:22:48.231Z,9.04
2017-11-06T18:25:16.609Z,9.01
2017-11-06T18:27:45.621Z,8.99
2017-11-06T18:30:13.916Z,8.96
2017-11-06T18:32:42.234Z,8.92
2017-11-06T18:35:11.309Z,8.88
2017-11-06T18:37:39.614Z,8.82
2017-11-06T18:40:08.680Z,8.83
2017-11-06T18:42:36.980Z,8.80
2017-11-06T18:45:06.047Z,8.79
2017-11-06T18:47:35.071Z,8.80
2017-11-06T18:50:03.383Z,8.78
2017-11-06T18:52:31.669Z,8.78
2017-11-06T18:54:59.955Z,8.81
2017-11-06T18:57:28.277Z,8.79
2017-11-06T18:59:56.734Z,8.78
2017-11-06T19:02:25.075Z,8.78
2017-11-06T19:04:53.452Z,8.77
2017-11-06T19:07:22.516Z,8.76
2017-11-06T19:09:50.825Z,8.77
2017-11-06T19:12:19.113Z,8.76
2017-11-06T19:14:47.409Z,8.73
2017-11-06T19:17:16.485Z,8.73
2017-11-06T19:19:44.785Z,8.71
2017-11-06T19:22:13.840Z,8.70
2017-11-06T19:24:42.153Z,8.69
2017-11-06T19:27:10.452Z,8.70
2017-11-06T19:29:38.776Z,8.72
2017-11-06T19:32:07.129Z,8.79
2017-11-06T19:34:35.438Z,8.96
2017-11-06T19:37:03.771Z,8.84
2017-11-06T19:39:32.823Z,8.77
2017-11-06T19:42:01.124Z,8.70
2017-11-06T19:44:29.677Z,8.62
2017-11-06T19:46:57.972Z,8.59
2017-11-06T19:49:26.304Z,8.60
2017-11-06T19:51:55.368Z,8.58
2017-11-06T19:54:23.851Z,8.55
2017-11-06T19:56:53.123Z,8.49
2017-11-06T19:59:21.475Z,8.47
2017-11-06T20:01:50.544Z,8.42
2017-11-06T20:04:18.835Z,8.41
2017-11-06T20:06:48.292Z,8.40
2017-11-06T20:09:16.602Z,8.36
2017-11-06T20:11:44.908Z,8.32
2017-11-06T20:14:13.237Z,8.37
2017-11-06T20:16:41.527Z,8.47
2017-11-06T20:19:10.101Z,8.55
2017-11-06T20:21:38.397Z,8.57
2017-11-06T20:24:06.687Z,8.52
2017-11-06T20:26:34.980Z,8.44
2017-11-06T20:29:03.287Z,8.34
2017-11-06T20:31:31.576Z,8.32
2017-11-06T20:33:59.861Z,8.30
2017-11-06T20:36:28.937Z,8.32
2017-11-06T20:38:57.221Z,8.36
2017-11-06T20:41:26.296Z,8.39
2017-11-06T20:43:54.606Z,8.39
2017-11-06T20:46:23.051Z,8.33
2017-11-06T20:48:51.407Z,8.27
2017-11-06T20:51:19.711Z,8.22
2017-11-06T20:53:48.007Z,8.17
2017-11-06T20:56:16.361Z,8.11
2017-11-06T20:58:44.653Z,8.08
2017-11-06T21:01:12.949Z,8.07
2017-11-06T21:03:41.341Z,8.07
2017-11-06T21:06:09.648Z,8.03
2017-11-06T21:08:37.943Z,8.02
2017-11-06T21:11:07.008Z,8.01
2017-11-06T21:13:35.304Z,7.97
2017-11-06T21:16:05.117Z,7.97
2017-11-06T21:18:33.434Z,8.00
2017-11-06T21:21:02.546Z,8.00
2017-11-06T21:23:30.847Z,8.03
2017-11-06T21:25:59.131Z,8.03
2017-11-06T21:28:27.512Z,8.02
2017-11-06T21:30:55.810Z,7.96
2017-11-06T21:33:24.123Z,7.96
2017-11-06T21:35:52.444Z,7.94
2017-11-06T21:38:20.761Z,7.98
2017-11-06T21:40:49.101Z,8.03
2017-11-06T21:43:17.387Z,8.05
2017-11-06T21:45:45.697Z,8.06
2017-11-06T21:48:14.075Z,8.04
2017-11-06T21:50:42.374Z,8.06
2017-11-06T21:53:10.680Z,8.07
2017-11-06T21:55:39.728Z,8.08
2017-11-06T21:58:08.046Z,8.03
2017-11-06T22:00:36.460Z,8.02
2017-11-06T22:03:04.745Z,8.04
2017-11-06T22:05:33.041Z,8.02
2017-11-06T22:08:01.330Z,7.99
2017-11-06T22:10:29.625Z,7.98
2017-11-06T22:12:57.922Z,7.91
2017-11-06T22:15:26.223Z,7.87
2017-11-06T22:17:55.317Z,7.85
2017-11-06T22:20:24.371Z,7.81
2017-11-06T22:22:52.677Z,7.78
2017-11-06T22:25:21.036Z,7.77
2017-11-06T22:27:49.343Z,7.80
2017-11-06T22:30:17.730Z,7.79
2017-11-06T22:32:46.024Z,7.80
2017-11-06T22:35:15.080Z,7.80
2017-11-06T22:37:43.362Z,7.80
2017-11-06T22:40:11.660Z,7.78
2017-11-06T22:42:40.052Z,7.78
2017-11-06T22:45:08.339Z,7.73
2017-11-06T22:47:36.647Z,7.72
2017-11-06T22:50:05.775Z,7.74
2017-11-06T22:52:34.069Z,7.74
2017-11-06T22:55:02.369Z,7.73
2017-11-06T22:57:30.680Z,7.68
2017-11-06T22:59:58.975Z,7.64
2017-11-06T23:02:28.021Z,7.62
2017-11-06T23:04:56.361Z,7.58
2017-11-06T23:07:25.585Z,7.54
2017-11-06T23:09:53.885Z,7.49
2017-11-06T23:12:22.197Z,7.44
2017-11-06T23:14:50.482Z,7.38
2017-11-06T23:17:20.296Z,7.35
2017-11-06T23:19:50.096Z,7.32
2017-11-06T23:22:18.441Z,7.29
2017-11-06T23:24:46.739Z,7.28
2017-11-06T23:27:15.023Z,7.25
2017-11-06T23:29:43.315Z,7.26
2017-11-06T23:32:11.604Z,7.21
2017-11-06T23:34:39.932Z,7.17
2017-11-06T23:37:09.007Z,7.12
2017-11-06T23:39:38.086Z,7.13
2017-11-06T23:42:06.375Z,7.12
2017-11-06T23:44:34.664Z,7.10
2017-11-06T23:47:02.958Z,7.10
2017-11-06T23:49:32.018Z,7.09
2017-11-06T23:52:00.412Z,7.07
2017-11-06T23:54:28.776Z,7.09
2017-11-06T23:56:57.150Z,7.07
2017-11-06T23:59:25.460Z,7.04
